createdAt,value
2018-06-08T00:00:23.356Z,21.78
2018-06-08T00:01:23.362Z,21.67
2018-06-08T00:02:23.373Z,21.76
2018-06-08T00:03:23.368Z,21.64
2018-06-08T00:04:23.383Z,21.44
2018-06-08T00:05:23.376Z,21.50
2018-06-08T00:06:23.383Z,21.32
2018-06-08T00:07:23.383Z,21.39
2018-06-08T00:08:23.391Z,21.48
2018-06-08T00:09:23.397Z,21.67
2018-06-08T00:10:23.394Z,21.83
2018-06-08T00:11:23.401Z,21.69
2018-06-08T00:12:23.411Z,21.75
2018-06-08T00:13:23.411Z,21.74
2018-06-08T00:14:23.423Z,21.53
2018-06-08T00:15:23.421Z,21.64
2018-06-08T00:16:23.428Z,21.48
2018-06-08T00:17:23.432Z,21.71
2018-06-08T00:18:23.443Z,21.76
2018-06-08T00:19:23.450Z,21.72
2018-06-08T00:20:23.439Z,21.81
2018-06-08T00:21:23.448Z,21.71
2018-06-08T00:22:23.473Z,21.67
2018-06-08T00:23:23.459Z,21.67
2018-06-08T00:24:23.469Z,21.72
2018-06-08T00:25:23.475Z,21.71
2018-06-08T00:26:23.475Z,21.74
2018-06-08T00:27:23.473Z,21.81
2018-06-08T00:28:23.492Z,21.81
2018-06-08T00:29:23.490Z,21.72
2018-06-08T00:30:23.486Z,21.57
2018-06-08T00:31:23.505Z,21.48
2018-06-08T00:32:23.502Z,21.34
2018-06-08T00:33:23.513Z,21.42
2018-06-08T00:34:23.508Z,21.44
2018-06-08T00:35:23.508Z,21.27
2018-06-08T00:36:23.514Z,21.21
2018-06-08T00:37:23.524Z,21.08
2018-06-08T00:38:23.526Z,21.16
2018-06-08T00:39:23.529Z,21.14
2018-06-08T00:40:23.538Z,21.16
2018-06-08T00:41:23.538Z,21.16
2018-06-08T00:42:23.544Z,21.23
2018-06-08T00:43:23.550Z,21.23
2018-06-08T00:44:23.551Z,21.13
2018-06-08T00:45:23.560Z,20.98
2018-06-08T00:46:23.561Z,20.98
2018-06-08T00:47:23.569Z,20.91
2018-06-08T00:48:23.589Z,20.84
2018-06-08T00:49:23.575Z,21.04
2018-06-08T00:50:23.581Z,21.04
2018-06-08T00:51:23.584Z,21.11
2018-06-08T00:52:23.587Z,21.20
2018-06-08T00:53:23.591Z,21.24
2018-06-08T00:54:23.598Z,21.09
2018-06-08T00:55:23.613Z,21.13
2018-06-08T00:56:23.606Z,21.08
2018-06-08T00:57:23.668Z,20.93
2018-06-08T00:58:23.612Z,20.91
2018-06-08T00:59:23.636Z,21.39
2018-06-08T01:00:23.634Z,21.34
2018-06-08T01:01:23.625Z,21.19
2018-06-08T01:02:23.634Z,20.93
2018-06-08T01:03:23.632Z,20.84
2018-06-08T01:04:23.636Z,20.74
2018-06-08T01:05:23.644Z,21.01
2018-06-08T01:07:53.753Z,21.44
2018-06-08T01:08:53.299Z,21.42
2018-06-08T01:10:38.087Z,21.13
2018-06-08T01:11:38.074Z,21.46
2018-06-08T01:12:38.091Z,21.57
2018-06-08T01:13:38.085Z,21.16
2018-06-08T01:14:38.085Z,20.91
2018-06-08T01:15:38.091Z,20.87
2018-06-08T01:16:38.099Z,20.79
2018-06-08T01:17:38.104Z,20.83
2018-06-08T01:18:38.105Z,20.59
2018-06-08T01:19:38.111Z,20.61
2018-06-08T01:20:38.111Z,20.59
2018-06-08T01:21:38.115Z,20.62
2018-06-08T01:22:38.125Z,20.54
2018-06-08T01:23:38.126Z,20.47
2018-06-08T01:24:38.127Z,20.25
2018-06-08T01:25:38.130Z,20.71
2018-06-08T01:26:38.138Z,20.76
2018-06-08T01:27:38.142Z,20.74
2018-06-08T01:28:38.150Z,20.56
2018-06-08T01:29:38.157Z,20.58
2018-06-08T01:30:38.157Z,20.43
2018-06-08T01:31:38.161Z,20.21
2018-06-08T01:32:38.167Z,20.05
2018-06-08T01:33:38.166Z,20.09
2018-06-08T01:34:38.170Z,20.21
2018-06-08T01:35:38.180Z,20.42
2018-06-08T01:36:38.176Z,20.38
2018-06-08T01:37:38.226Z,20.38
2018-06-08T01:38:38.187Z,20.34
2018-06-08T01:39:38.197Z,20.47
2018-06-08T01:40:38.205Z,20.61
2018-06-08T01:41:38.201Z,20.59
2018-06-08T01:42:38.200Z,20.72
2018-06-08T01:43:38.206Z,20.58
2018-06-08T01:44:38.228Z,20.47
2018-06-08T01:45:38.215Z,20.50
2018-06-08T01:46:38.223Z,20.59
2018-06-08T01:47:38.231Z,20.41
2018-06-08T01:48:38.226Z,20.02
2018-06-08T01:49:38.238Z,20.27
2018-06-08T01:50:38.235Z,20.24
2018-06-08T01:51:38.239Z,20.34
2018-06-08T01:52:38.251Z,20.53
2018-06-08T01:53:38.251Z,20.49
2018-06-08T01:54:38.262Z,20.34
2018-06-08T01:55:38.270Z,20.41
2018-06-08T01:56:38.260Z,20.34
2018-06-08T01:57:38.268Z,20.23
2018-06-08T01:58:38.266Z,20.12
2018-06-08T01:59:38.273Z,20.38
2018-06-08T02:00:38.270Z,20.87
2018-06-08T02:01:38.276Z,21.05
2018-06-08T02:02:38.284Z,20.79
2018-06-08T02:03:38.282Z,20.53
2018-06-08T02:04:38.286Z,20.34
2018-06-08T02:05:38.288Z,20.41
2018-06-08T02:06:38.289Z,20.34
2018-06-08T02:07:38.302Z,20.47
2018-06-08T02:08:38.313Z,20.80
2018-06-08T02:09:38.305Z,21.30
2018-06-08T02:10:38.317Z,20.86
2018-06-08T02:11:38.318Z,20.49
2018-06-08T02:12:38.314Z,20.54
2018-06-08T02:13:38.324Z,20.51
2018-06-08T02:14:38.330Z,20.47
2018-06-08T02:15:38.330Z,20.30
2018-06-08T02:16:38.337Z,20.18
2018-06-08T02:17:38.338Z,20.06
2018-06-08T02:18:38.359Z,20.34
2018-06-08T02:19:38.345Z,20.27
2018-06-08T02:20:38.346Z,20.28
2018-06-08T02:21:38.356Z,20.35
2018-06-08T02:22:38.359Z,20.34
2018-06-08T02:23:38.356Z,20.28
2018-06-08T02:24:38.364Z,20.53
2018-06-08T02:25:38.364Z,20.47
2018-06-08T02:26:38.373Z,20.54
2018-06-08T02:27:38.373Z,20.80
2018-06-08T02:28:38.375Z,20.61
2018-06-08T02:29:38.384Z,20.49
2018-06-08T02:30:38.388Z,20.41
2018-06-08T02:31:38.388Z,20.21
2018-06-08T02:32:38.394Z,20.39
2018-06-08T02:33:38.398Z,19.97
2018-06-08T02:34:38.401Z,19.58
2018-06-08T02:35:38.406Z,19.76
2018-06-08T02:36:38.410Z,19.87
2018-06-08T02:37:38.409Z,19.68
2018-06-08T02:38:38.413Z,19.47
2018-06-08T02:39:38.428Z,19.28
2018-06-08T02:40:38.422Z,19.53
2018-06-08T02:41:38.428Z,19.83
2018-06-08T02:42:38.436Z,19.86
2018-06-08T02:43:38.437Z,19.76
2018-06-08T02:44:38.441Z,19.61
2018-06-08T02:45:38.443Z,19.75
2018-06-08T02:46:38.449Z,19.63
2018-06-08T02:47:38.446Z,19.86
2018-06-08T02:48:38.451Z,20.28
2018-06-08T02:49:38.461Z,20.08
2018-06-08T02:50:38.470Z,19.83
2018-06-08T02:51:38.477Z,19.93
2018-06-08T02:52:38.464Z,20.05
2018-06-08T02:53:38.470Z,19.95
2018-06-08T02:54:38.473Z,19.55
2018-06-08T02:55:38.490Z,19.66
2018-06-08T02:56:38.483Z,19.84
2018-06-08T02:57:38.480Z,19.86
2018-06-08T02:58:38.485Z,19.38
2018-06-08T02:59:38.502Z,19.50
2018-06-08T03:00:38.511Z,19.25
2018-06-08T03:01:38.494Z,19.31
2018-06-08T03:02:38.503Z,19.51
2018-06-08T03:03:38.504Z,19.68
2018-06-08T03:22:58.353Z,19.68
2018-06-08T03:23:58.336Z,19.46
2018-06-08T03:24:58.337Z,19.38
2018-06-08T03:25:58.335Z,19.32
2018-06-08T03:26:58.335Z,19.33
2018-06-08T03:27:58.333Z,19.57
2018-06-08T03:28:58.332Z,19.38
2018-06-08T03:29:58.341Z,19.28
2018-06-08T03:30:58.339Z,20.15
2018-06-08T03:31:58.339Z,20.08
2018-06-08T03:32:58.338Z,19.75
2018-06-08T03:33:58.339Z,19.86
2018-06-08T03:34:58.343Z,19.43
2018-06-08T03:35:58.420Z,19.36
2018-06-08T03:36:58.343Z,19.48
2018-06-08T03:37:58.345Z,19.50
2018-06-08T03:38:58.352Z,19.60
2018-06-08T03:39:58.360Z,19.33
2018-06-08T03:40:58.353Z,19.40
2018-06-08T03:41:58.359Z,19.02
2018-06-08T03:42:58.369Z,19.11
2018-06-08T03:44:06.999Z,19.51
2018-06-08T03:45:51.801Z,19.57
2018-06-08T03:46:51.771Z,19.35
2018-06-08T03:47:51.773Z,19.33
2018-06-08T03:48:51.785Z,19.21
2018-06-08T03:50:00.419Z,19.42
2018-06-08T03:51:54.248Z,19.55
2018-06-08T03:52:45.193Z,19.31
2018-06-08T03:53:45.195Z,19.43
2018-06-08T03:54:45.211Z,19.38
2018-06-08T03:55:45.197Z,19.58
2018-06-08T03:56:45.211Z,19.58
2018-06-08T03:57:45.207Z,19.78
2018-06-08T03:58:45.203Z,19.86
2018-06-08T03:59:45.214Z,19.84
2018-06-08T04:00:45.215Z,19.65
2018-06-08T04:01:45.217Z,19.40
2018-06-08T04:02:45.230Z,19.69
2018-06-08T04:03:45.226Z,19.63
2018-06-08T04:04:45.228Z,19.60
2018-06-08T04:05:45.229Z,19.66
2018-06-08T04:06:45.233Z,19.80
2018-06-08T04:07:45.238Z,19.78
2018-06-08T04:08:45.242Z,19.83
2018-06-08T04:09:45.245Z,19.97
2018-06-08T04:10:45.249Z,19.93
2018-06-08T04:11:45.254Z,19.57
2018-06-08T04:12:45.266Z,19.78
2018-06-08T04:13:45.256Z,19.86
2018-06-08T04:14:45.259Z,19.68
2018-06-08T04:15:45.269Z,19.94
2018-06-08T04:16:45.273Z,20.12
2018-06-08T04:17:45.278Z,19.93
2018-06-08T04:18:45.274Z,20.10
2018-06-08T04:19:45.278Z,19.90
2018-06-08T04:20:45.280Z,20.35
2018-06-08T04:21:45.290Z,20.15
2018-06-08T04:22:45.292Z,20.03
2018-06-08T04:23:45.296Z,20.24
2018-06-08T04:24:45.303Z,19.79
2018-06-08T04:25:45.314Z,19.97
2018-06-08T04:26:45.308Z,20.18
2018-06-08T04:27:45.304Z,20.13
2018-06-08T04:28:45.317Z,20.38
2018-06-08T04:29:45.319Z,20.05
2018-06-08T04:30:45.321Z,20.16
2018-06-08T04:31:45.329Z,20.05
2018-06-08T04:32:45.337Z,20.10
2018-06-08T04:33:45.334Z,20.25
2018-06-08T04:34:45.339Z,20.20
2018-06-08T04:35:45.345Z,20.83
2018-06-08T04:36:45.342Z,20.76
2018-06-08T04:37:45.346Z,20.56
2018-06-08T04:38:45.350Z,20.87
2018-06-08T04:39:45.360Z,20.98
2018-06-08T04:40:45.366Z,20.59
2018-06-08T04:41:45.368Z,20.74
2018-06-08T04:42:45.372Z,20.99
2018-06-08T04:43:45.375Z,21.06
2018-06-08T04:44:45.384Z,21.16
2018-06-08T04:45:45.389Z,21.13
2018-06-08T04:46:45.390Z,21.32
2018-06-08T04:47:45.397Z,21.46
2018-06-08T04:48:45.405Z,21.24
2018-06-08T04:49:45.411Z,21.35
2018-06-08T04:50:45.410Z,21.05
2018-06-08T04:51:45.498Z,21.32
2018-06-08T04:52:45.425Z,21.32
2018-06-08T04:53:45.435Z,21.42
2018-06-08T04:54:45.435Z,21.36
2018-06-08T04:55:45.443Z,21.59
2018-06-08T04:56:45.448Z,21.51
2018-06-08T04:57:45.451Z,21.32
2018-06-08T04:58:45.463Z,21.53
2018-06-08T04:59:45.466Z,21.69
2018-06-08T05:00:45.480Z,21.74
2018-06-08T05:01:45.476Z,21.59
2018-06-08T05:02:45.489Z,22.01
2018-06-08T05:03:45.487Z,22.44
2018-06-08T05:04:45.492Z,22.78
2018-06-08T05:05:45.506Z,22.68
2018-06-08T05:06:45.510Z,22.72
2018-06-08T05:07:45.519Z,23.20
2018-06-08T05:08:45.523Z,23.31
2018-06-08T05:09:45.553Z,23.09
2018-06-08T05:10:45.532Z,23.19
2018-06-08T05:11:45.540Z,23.04
2018-06-08T05:12:45.549Z,23.07
2018-06-08T05:13:45.558Z,23.08
2018-06-08T05:14:45.564Z,22.92
2018-06-08T05:15:45.574Z,22.75
2018-06-08T05:16:45.572Z,22.84
2018-06-08T05:17:45.589Z,22.89
2018-06-08T05:18:45.587Z,22.93
2018-06-08T05:19:45.594Z,22.90
2018-06-08T05:20:45.610Z,22.92
2018-06-08T05:21:45.607Z,23.14
2018-06-08T05:24:06.671Z,23.43
2018-06-08T05:25:06.663Z,23.42
2018-06-08T05:26:06.666Z,23.39
2018-06-08T05:27:06.670Z,22.97
2018-06-08T05:28:06.687Z,23.12
2018-06-08T05:29:06.693Z,23.26
2018-06-08T05:30:06.696Z,23.20
2018-06-08T05:31:06.702Z,23.07
2018-06-08T05:32:06.706Z,22.92
2018-06-08T05:33:06.716Z,22.90
2018-06-08T05:34:06.720Z,22.74
2018-06-08T05:35:06.730Z,22.82
2018-06-08T05:36:06.786Z,22.80
2018-06-08T05:37:06.743Z,22.53
2018-06-08T05:38:06.750Z,22.56
2018-06-08T05:39:06.756Z,22.56
2018-06-08T05:40:06.770Z,22.57
2018-06-08T05:41:06.775Z,22.71
2018-06-08T05:42:06.778Z,22.67
2018-06-08T05:43:06.790Z,22.75
2018-06-08T05:44:06.791Z,22.83
2018-06-08T05:45:06.810Z,23.14
2018-06-08T05:46:06.812Z,23.11
2018-06-08T05:47:06.811Z,23.23
2018-06-08T05:48:06.879Z,23.12
2018-06-08T05:49:06.830Z,23.26
2018-06-08T05:50:06.843Z,23.31
2018-06-08T05:51:06.844Z,23.39
2018-06-08T05:52:06.842Z,23.53
2018-06-08T05:53:06.860Z,23.50
2018-06-08T05:54:06.864Z,23.52
2018-06-08T05:55:06.875Z,23.52
2018-06-08T05:56:06.874Z,23.46
2018-06-08T05:57:06.889Z,23.52
2018-06-08T05:58:06.892Z,23.55
2018-06-08T05:59:06.902Z,23.65
2018-06-08T06:00:06.902Z,23.82
2018-06-08T06:01:06.963Z,23.89
2018-06-08T06:02:06.926Z,23.95
2018-06-08T06:03:06.935Z,23.98
2018-06-08T06:04:06.942Z,23.80
2018-06-08T06:05:06.948Z,23.76
2018-06-08T06:06:06.958Z,23.82
2018-06-08T06:07:06.961Z,23.85
2018-06-08T06:08:07.002Z,23.79
2018-06-08T06:09:06.976Z,23.82
2018-06-08T06:10:06.988Z,23.79
2018-06-08T06:11:06.992Z,23.90
2018-06-08T06:12:06.998Z,23.71
2018-06-08T06:13:07.008Z,23.79
2018-06-08T06:14:07.019Z,23.87
2018-06-08T06:15:07.022Z,24.00
2018-06-08T06:16:07.034Z,24.01
2018-06-08T06:17:07.040Z,23.94
2018-06-08T06:18:07.048Z,24.04
2018-06-08T06:19:07.059Z,24.14
2018-06-08T06:20:07.064Z,24.17
2018-06-08T06:21:07.078Z,24.20
2018-06-08T06:22:07.077Z,24.20
2018-06-08T06:23:07.088Z,24.27
2018-06-08T06:24:07.103Z,24.13
2018-06-08T06:25:07.102Z,24.07
2018-06-08T06:26:07.112Z,24.12
2018-06-08T06:27:07.113Z,24.31
2018-06-08T06:29:28.166Z,24.34
2018-06-08T06:30:28.156Z,24.47
2018-06-08T06:31:28.172Z,24.34
2018-06-08T06:32:28.178Z,24.35
2018-06-08T06:33:28.187Z,24.24
2018-06-08T06:34:28.187Z,24.26
2018-06-08T06:35:28.196Z,24.12
2018-06-08T06:36:28.209Z,24.08
2018-06-08T06:37:28.211Z,24.24
2018-06-08T06:38:28.220Z,24.41
2018-06-08T06:39:28.227Z,24.45
2018-06-08T06:40:28.234Z,24.41
2018-06-08T06:41:28.242Z,24.38
2018-06-08T06:42:28.250Z,24.24
2018-06-08T06:43:28.262Z,24.34
2018-06-08T06:44:28.259Z,24.31
2018-06-08T06:45:28.267Z,24.31
2018-06-08T06:46:28.281Z,24.31
2018-06-08T06:47:28.291Z,24.27
2018-06-08T06:48:28.292Z,24.10
2018-06-08T06:49:28.300Z,24.00
2018-06-08T06:50:28.308Z,23.95
2018-06-08T06:51:28.318Z,23.82
2018-06-08T06:52:28.318Z,23.98
2018-06-08T06:53:28.326Z,24.23
2018-06-08T06:54:28.333Z,24.32
2018-06-08T06:55:28.349Z,24.27
2018-06-08T06:56:28.352Z,24.16
2018-06-08T06:57:28.363Z,24.23
2018-06-08T06:58:28.367Z,24.20
2018-06-08T06:59:28.377Z,24.17
2018-06-08T07:00:28.382Z,24.35
2018-06-08T07:01:28.388Z,24.38
2018-06-08T07:02:28.394Z,24.50
2018-06-08T07:03:28.414Z,24.44
2018-06-08T07:04:28.442Z,24.26
2018-06-08T07:05:28.413Z,24.31
2018-06-08T07:06:28.428Z,24.41
2018-06-08T07:07:28.437Z,24.53
2018-06-08T07:08:28.437Z,24.68
2018-06-08T07:09:28.441Z,24.69
2018-06-08T07:10:28.449Z,24.67
2018-06-08T07:11:28.456Z,24.67
2018-06-08T07:12:28.470Z,24.54
2018-06-08T07:13:28.491Z,24.54
2018-06-08T07:14:28.478Z,24.50
2018-06-08T07:15:28.492Z,24.32
2018-06-08T07:16:28.508Z,24.16
2018-06-08T07:17:28.501Z,24.08
2018-06-08T07:18:28.515Z,24.27
2018-06-08T07:19:28.536Z,24.44
2018-06-08T07:20:28.533Z,24.69
2018-06-08T07:21:28.647Z,24.79
2018-06-08T07:22:28.560Z,24.83
2018-06-08T07:23:28.548Z,24.61
2018-06-08T07:24:28.550Z,24.63
2018-06-08T07:25:28.562Z,24.52
2018-06-08T07:26:28.565Z,24.56
2018-06-08T07:27:28.573Z,24.56
2018-06-08T07:28:28.583Z,24.68
2018-06-08T07:29:28.584Z,24.75
2018-06-08T07:30:28.599Z,24.63
2018-06-08T07:31:28.672Z,24.52
2018-06-08T07:32:28.615Z,24.41
2018-06-08T07:33:28.617Z,24.41
2018-06-08T07:34:28.624Z,24.47
2018-06-08T07:35:28.630Z,24.64
2018-06-08T07:36:28.642Z,24.54
2018-06-08T07:37:28.645Z,24.61
2018-06-08T07:38:28.659Z,24.76
2018-06-08T07:39:28.665Z,24.85
2018-06-08T07:40:28.668Z,24.87
2018-06-08T07:41:28.681Z,24.56
2018-06-08T07:42:28.684Z,24.39
2018-06-08T07:43:28.694Z,24.47
2018-06-08T07:44:28.711Z,24.49
2018-06-08T07:45:28.718Z,24.32
2018-06-08T07:46:28.714Z,24.13
2018-06-08T07:47:28.722Z,24.00
2018-06-08T07:48:28.731Z,23.98
2018-06-08T07:49:28.732Z,24.10
2018-06-08T07:50:28.745Z,24.04
2018-06-08T07:51:28.751Z,23.92
2018-06-08T07:52:28.760Z,23.89
2018-06-08T07:53:28.767Z,23.90
2018-06-08T07:54:28.780Z,24.10
2018-06-08T07:55:28.784Z,23.94
2018-06-08T07:56:28.793Z,23.76
2018-06-08T07:57:28.801Z,24.07
2018-06-08T07:58:28.804Z,24.07
2018-06-08T07:59:28.812Z,24.10
2018-06-08T08:00:28.818Z,24.12
2018-06-08T08:01:28.824Z,23.94
2018-06-08T08:02:28.830Z,24.07
2018-06-08T08:03:28.835Z,24.07
2018-06-08T08:04:28.855Z,24.23
2018-06-08T08:05:28.852Z,24.23
2018-06-08T08:06:28.860Z,24.45
2018-06-08T08:07:28.883Z,24.59
2018-06-08T08:08:28.868Z,24.71
2018-06-08T08:09:28.882Z,24.92
2018-06-08T08:10:28.893Z,25.01
2018-06-08T08:11:28.895Z,25.02
2018-06-08T08:12:28.897Z,25.06
2018-06-08T08:13:28.934Z,25.12
2018-06-08T08:14:28.916Z,25.10
2018-06-08T08:15:28.918Z,25.06
2018-06-08T08:16:28.934Z,24.82
2018-06-08T08:17:28.942Z,24.87
2018-06-08T08:18:28.940Z,24.77
2018-06-08T08:19:28.961Z,24.80
2018-06-08T08:20:28.958Z,24.83
2018-06-08T08:21:28.962Z,24.94
2018-06-08T08:22:28.976Z,25.00
2018-06-08T08:23:28.979Z,24.91
2018-06-08T08:24:28.988Z,24.85
2018-06-08T08:25:28.995Z,24.82
2018-06-08T08:26:29.006Z,24.94
2018-06-08T08:27:29.009Z,24.71
2018-06-08T08:28:29.016Z,24.71
2018-06-08T08:29:29.024Z,24.44
2018-06-08T08:30:29.033Z,24.42
2018-06-08T08:31:29.042Z,24.45
2018-06-08T08:32:29.049Z,24.42
2018-06-08T08:33:29.056Z,24.37
2018-06-08T08:34:29.064Z,24.42
2018-06-08T08:35:29.069Z,24.42
2018-06-08T08:36:29.074Z,24.23
2018-06-08T08:37:29.083Z,24.26
2018-06-08T08:38:29.090Z,24.19
2018-06-08T08:39:29.101Z,24.14
2018-06-08T08:40:29.109Z,24.31
2018-06-08T08:41:29.121Z,24.37
2018-06-08T08:42:29.120Z,24.23
2018-06-08T08:43:29.129Z,24.34
2018-06-08T08:44:29.137Z,24.44
2018-06-08T08:45:29.143Z,24.42
2018-06-08T08:46:29.262Z,24.57
2018-06-08T08:47:29.161Z,24.80
2018-06-08T08:48:29.161Z,24.77
2018-06-08T08:49:29.176Z,24.87
2018-06-08T08:50:29.183Z,24.91
2018-06-08T08:51:29.207Z,24.90
2018-06-08T08:52:29.191Z,24.92
2018-06-08T08:53:29.212Z,24.80
2018-06-08T08:54:29.207Z,24.71
2018-06-08T08:55:29.218Z,24.63
2018-06-08T08:56:29.224Z,24.53
2018-06-08T08:57:29.231Z,24.37
2018-06-08T08:58:29.235Z,24.34
2018-06-08T08:59:29.248Z,24.38
2018-06-08T09:00:29.250Z,24.32
2018-06-08T09:01:29.257Z,24.27
2018-06-08T09:02:29.267Z,24.34
2018-06-08T09:03:29.297Z,24.47
2018-06-08T09:04:29.281Z,24.67
2018-06-08T09:05:29.292Z,24.87
2018-06-08T09:06:29.294Z,24.80
2018-06-08T09:07:29.303Z,24.82
2018-06-08T09:08:29.312Z,24.88
2018-06-08T09:09:29.316Z,24.92
2018-06-08T09:10:29.322Z,24.90
2018-06-08T09:11:29.360Z,24.83
2018-06-08T09:12:29.335Z,24.94
2018-06-08T09:13:29.340Z,24.98
2018-06-08T09:14:29.355Z,25.00
2018-06-08T09:15:29.358Z,24.98
2018-06-08T09:16:29.364Z,24.79
2018-06-08T09:17:29.372Z,24.75
2018-06-08T09:18:29.382Z,24.85
2018-06-08T09:19:29.416Z,24.97
2018-06-08T09:20:29.391Z,24.90
2018-06-08T09:21:29.403Z,24.92
2018-06-08T09:22:29.407Z,24.92
2018-06-08T09:23:29.417Z,24.94
2018-06-08T09:24:29.425Z,24.94
2018-06-08T09:25:29.435Z,24.68
2018-06-08T09:26:29.439Z,24.88
2018-06-08T09:27:29.446Z,24.91
2018-06-08T09:28:29.452Z,24.92
2018-06-08T09:29:29.474Z,25.07
2018-06-08T09:30:29.467Z,24.97
2018-06-08T09:31:29.474Z,24.94
2018-06-08T09:32:29.478Z,24.98
2018-06-08T09:33:29.494Z,24.95
2018-06-08T09:34:29.498Z,25.06
2018-06-08T09:35:29.508Z,25.07
2018-06-08T09:36:29.507Z,25.02
2018-06-08T09:37:29.518Z,25.10
2018-06-08T09:38:29.527Z,25.24
2018-06-08T09:39:29.546Z,25.16
2018-06-08T09:40:29.543Z,25.32
2018-06-08T09:41:29.552Z,25.30
2018-06-08T09:42:29.561Z,25.07
2018-06-08T09:43:29.567Z,24.94
2018-06-08T09:44:29.573Z,25.16
2018-06-08T09:45:29.588Z,25.20
2018-06-08T09:46:29.617Z,25.27
2018-06-08T09:47:29.604Z,25.37
2018-06-08T09:48:29.602Z,25.34
2018-06-08T09:49:29.609Z,25.25
2018-06-08T09:50:29.626Z,25.37
2018-06-08T09:51:29.632Z,25.47
2018-06-08T09:52:29.628Z,25.47
2018-06-08T09:53:29.667Z,25.59
2018-06-08T09:54:29.667Z,25.68
2018-06-08T09:55:29.657Z,25.54
2018-06-08T09:56:29.687Z,25.57
2018-06-08T09:57:29.680Z,25.57
2018-06-08T09:58:29.682Z,25.54
2018-06-08T09:59:29.687Z,25.71
2018-06-08T10:00:29.705Z,25.77
2018-06-08T10:01:29.744Z,25.72
2018-06-08T10:02:29.754Z,25.75
2018-06-08T10:03:29.731Z,25.64
2018-06-08T10:04:29.776Z,25.72
2018-06-08T10:05:29.771Z,25.77
2018-06-08T10:06:29.779Z,25.72
2018-06-08T10:07:29.749Z,25.72
2018-06-08T10:08:29.793Z,25.59
2018-06-08T10:09:29.773Z,25.47
2018-06-08T10:10:29.773Z,25.49
2018-06-08T10:11:29.779Z,25.46
2018-06-08T10:12:29.795Z,25.54
2018-06-08T10:13:29.789Z,25.52
2018-06-08T10:14:29.801Z,25.54
2018-06-08T10:15:29.816Z,25.56
2018-06-08T10:16:29.839Z,25.43
2018-06-08T10:17:29.997Z,25.56
2018-06-08T10:18:29.844Z,25.42
2018-06-08T10:19:29.844Z,25.47
2018-06-08T10:20:31.841Z,25.50
2018-06-08T10:21:29.861Z,25.35
2018-06-08T10:22:29.882Z,25.50
2018-06-08T10:23:29.878Z,25.49
2018-06-08T10:24:29.882Z,25.32
2018-06-08T10:25:29.891Z,25.46
2018-06-08T10:26:29.899Z,25.34
2018-06-08T10:27:29.901Z,25.43
2018-06-08T10:28:29.911Z,25.43
2018-06-08T10:29:29.916Z,25.47
2018-06-08T10:30:29.923Z,25.35
2018-06-08T10:31:29.933Z,25.37
2018-06-08T10:32:29.941Z,25.13
2018-06-08T10:33:29.949Z,25.32
2018-06-08T10:34:29.958Z,25.32
2018-06-08T10:35:29.963Z,25.31
2018-06-08T10:36:29.970Z,25.25
2018-06-08T10:37:29.973Z,25.20
2018-06-08T10:38:29.991Z,25.34
2018-06-08T10:39:29.994Z,25.32
2018-06-08T10:40:30.009Z,25.38
2018-06-08T10:41:30.013Z,25.56
2018-06-08T10:42:30.015Z,25.59
2018-06-08T10:43:30.067Z,25.80
2018-06-08T10:44:30.028Z,25.64
2018-06-08T10:45:30.032Z,25.54
2018-06-08T10:46:30.046Z,25.57
2018-06-08T10:47:30.055Z,25.74
2018-06-08T10:48:30.076Z,25.94
2018-06-08T10:49:30.074Z,25.91
2018-06-08T10:50:30.080Z,25.90
2018-06-08T10:51:30.082Z,25.82
2018-06-08T10:52:30.094Z,26.05
2018-06-08T10:53:30.108Z,26.05
2018-06-08T10:54:30.107Z,26.02
2018-06-08T10:55:30.114Z,26.06
2018-06-08T10:56:30.123Z,25.97
2018-06-08T10:57:30.137Z,25.79
2018-06-08T10:58:30.154Z,25.71
2018-06-08T10:59:30.149Z,25.87
2018-06-08T11:00:30.156Z,26.05
2018-06-08T11:01:30.166Z,26.25
2018-06-08T11:02:30.186Z,26.29
2018-06-08T11:03:30.192Z,26.21
2018-06-08T11:04:30.191Z,25.90
2018-06-08T11:05:30.197Z,25.99
2018-06-08T11:06:30.213Z,26.12
2018-06-08T11:07:30.249Z,26.11
2018-06-08T11:08:30.214Z,26.05
2018-06-08T11:09:30.227Z,26.04
2018-06-08T11:10:30.245Z,25.98
2018-06-08T11:11:30.237Z,26.01
2018-06-08T11:12:30.246Z,26.18
2018-06-08T11:13:30.254Z,26.08
2018-06-08T11:14:30.261Z,26.04
2018-06-08T11:15:30.269Z,26.12
2018-06-08T11:16:30.277Z,25.90
2018-06-08T11:17:30.285Z,25.89
2018-06-08T11:18:30.295Z,26.08
2018-06-08T11:19:30.303Z,26.24
2018-06-08T11:20:30.307Z,26.24
2018-06-08T11:21:30.318Z,26.27
2018-06-08T11:22:30.334Z,26.18
2018-06-08T11:23:30.334Z,26.31
2018-06-08T11:24:30.336Z,26.40
2018-06-08T11:25:30.345Z,26.40
2018-06-08T11:26:30.412Z,26.27
2018-06-08T11:27:30.433Z,26.28
2018-06-08T11:28:30.368Z,26.20
2018-06-08T11:29:30.382Z,26.11
2018-06-08T11:30:30.389Z,26.12
2018-06-08T11:31:30.406Z,26.21
2018-06-08T11:32:30.402Z,26.05
2018-06-08T11:33:30.422Z,26.24
2018-06-08T11:34:30.425Z,26.20
2018-06-08T11:35:30.449Z,26.43
2018-06-08T11:36:30.449Z,26.29
2018-06-08T11:37:30.456Z,26.15
2018-06-08T11:38:30.453Z,26.24
2018-06-08T11:39:30.519Z,26.22
2018-06-08T11:40:30.515Z,26.20
2018-06-08T11:41:30.471Z,26.40
2018-06-08T11:42:30.478Z,26.52
2018-06-08T11:43:30.492Z,26.37
2018-06-08T11:44:30.501Z,26.49
2018-06-08T11:45:30.509Z,26.57
2018-06-08T11:47:51.559Z,26.61
2018-06-08T11:48:51.557Z,26.61
2018-06-08T11:49:51.554Z,26.46
2018-06-08T11:50:51.561Z,26.42
2018-06-08T11:51:51.569Z,26.29
2018-06-08T11:52:51.582Z,26.18
2018-06-08T11:53:51.591Z,26.25
2018-06-08T11:54:51.596Z,26.20
2018-06-08T11:55:51.611Z,26.24
2018-06-08T11:56:51.616Z,26.32
2018-06-08T11:57:51.624Z,26.46
2018-06-08T11:58:51.651Z,26.46
2018-06-08T11:59:51.645Z,26.52
2018-06-08T12:00:51.641Z,26.50
2018-06-08T12:01:51.748Z,26.61
2018-06-08T12:03:01.294Z,26.29
2018-06-08T12:04:45.120Z,26.15
2018-06-08T12:05:45.092Z,26.12
2018-06-08T12:06:45.091Z,26.24
2018-06-08T12:07:45.099Z,26.55
2018-06-08T12:08:45.110Z,26.58
2018-06-08T12:09:45.118Z,26.65
2018-06-08T12:10:45.124Z,26.44
2018-06-08T12:11:45.137Z,26.31
2018-06-08T12:12:45.140Z,26.32
2018-06-08T12:13:45.146Z,26.42
2018-06-08T12:14:45.153Z,26.57
2018-06-08T12:15:45.166Z,26.49
2018-06-08T12:16:45.172Z,26.69
2018-06-08T12:17:45.181Z,26.72
2018-06-08T12:18:45.187Z,26.69
2018-06-08T12:19:45.196Z,26.52
2018-06-08T12:20:45.203Z,26.72
2018-06-08T12:21:45.213Z,26.79
2018-06-08T12:22:45.222Z,26.65
2018-06-08T12:23:45.366Z,26.52
2018-06-08T12:24:45.230Z,26.73
2018-06-08T12:25:45.242Z,26.73
2018-06-08T12:26:45.251Z,26.61
2018-06-08T12:27:45.257Z,26.54
2018-06-08T12:28:45.265Z,26.61
2018-06-08T12:29:45.279Z,26.52
2018-06-08T12:30:45.300Z,26.62
2018-06-08T12:31:45.284Z,26.55
2018-06-08T12:32:45.297Z,26.55
2018-06-08T12:33:45.318Z,26.52
2018-06-08T12:34:45.312Z,26.59
2018-06-08T12:35:45.320Z,26.73
2018-06-08T12:36:45.324Z,26.67
2018-06-08T12:37:45.334Z,26.58
2018-06-08T12:38:45.343Z,26.49
2018-06-08T12:39:45.352Z,26.67
2018-06-08T12:40:45.364Z,26.62
2018-06-08T12:41:45.374Z,26.65
2018-06-08T12:42:45.379Z,26.77
2018-06-08T12:43:45.384Z,26.62
2018-06-08T12:44:45.395Z,27.02
2018-06-08T12:45:45.403Z,27.02
2018-06-08T12:46:45.405Z,27.05
2018-06-08T12:47:45.416Z,27.17
2018-06-08T12:48:45.418Z,27.10
2018-06-08T12:49:45.432Z,27.10
2018-06-08T12:50:45.431Z,27.19
2018-06-08T12:51:45.442Z,26.99
2018-06-08T12:52:45.454Z,27.04
2018-06-08T12:53:45.460Z,26.84
2018-06-08T12:54:45.476Z,26.96
2018-06-08T12:55:45.541Z,26.84
2018-06-08T12:56:45.493Z,26.83
2018-06-08T12:57:45.494Z,26.74
2018-06-08T12:58:45.499Z,26.57
2018-06-08T12:59:45.510Z,26.69
2018-06-08T13:00:45.517Z,26.77
2018-06-08T13:01:45.529Z,26.84
2018-06-08T13:02:45.534Z,26.67
2018-06-08T13:03:45.545Z,26.77
2018-06-08T13:04:45.550Z,26.98
2018-06-08T13:05:45.557Z,27.16
2018-06-08T13:06:45.569Z,27.01
2018-06-08T13:07:45.572Z,27.11
2018-06-08T13:08:45.581Z,27.29
2018-06-08T13:09:45.605Z,27.28
2018-06-08T13:10:45.603Z,27.26
2018-06-08T13:11:45.607Z,27.38
2018-06-08T13:12:45.614Z,27.38
2018-06-08T13:13:45.626Z,27.26
2018-06-08T13:14:45.634Z,27.32
2018-06-08T13:15:45.671Z,27.24
2018-06-08T13:16:45.656Z,27.21
2018-06-08T13:17:45.659Z,27.29
2018-06-08T13:18:45.660Z,27.41
2018-06-08T13:19:45.677Z,27.41